sensor_id;sensor_type;location;lat;lon;timestamp;pressure;altitude;pressure_sealevel;temperature;humidity
80128;BME280;69440;52.118;5.408;2023-05-08T00:00:58;102222.22;;;13.11;91.43
80128;BME280;69440;52.118;5.408;2023-05-08T00:03:25;102229.50;;;13.09;91.06
80128;BME280;69440;52.118;5.408;2023-05-08T00:05:52;102234.41;;;13.01;90.43
80128;BME280;69440;52.118;5.408;2023-05-08T00:08:20;102231.94;;;12.96;89.91
80128;BME280;69440;52.118;5.408;2023-05-08T00:10:47;102237.31;;;12.96;90.49
80128;BME280;69440;52.118;5.408;2023-05-08T00:13:13;102231.06;;;12.96;90.56
80128;BME280;69440;52.118;5.408;2023-05-08T00:15:40;102227.69;;;12.91;89.75
80128;BME280;69440;52.118;5.408;2023-05-08T00:18:06;102229.22;;;12.96;90.47
80128;BME280;69440;52.118;5.408;2023-05-08T00:20:33;102227.47;;;12.95;90.41
80128;BME280;69440;52.118;5.408;2023-05-08T00:22:59;102224.84;;;12.94;90.32
80128;BME280;69440;52.118;5.408;2023-05-08T00:25:26;102214.06;;;12.94;91.04
80128;BME280;69440;52.118;5.408;2023-05-08T00:27:53;102214.06;;;12.94;91.07
80128;BME280;69440;52.118;5.408;2023-05-08T00:30:19;102213.25;;;12.92;91.52
80128;BME280;69440;52.118;5.408;2023-05-08T00:32:46;102217.78;;;12.91;91.27
80128;BME280;69440;52.118;5.408;2023-05-08T00:35:13;102210.47;;;12.93;91.95
80128;BME280;69440;52.118;5.408;2023-05-08T00:37:39;102211.50;;;12.91;91.15
80128;BME280;69440;52.118;5.408;2023-05-08T00:40:10;102210.88;;;12.84;91.22
80128;BME280;69440;52.118;5.408;2023-05-08T00:42:37;102223.72;;;12.79;90.95
80128;BME280;69440;52.118;5.408;2023-05-08T00:45:04;102215.03;;;12.72;90.70
80128;BME280;69440;52.118;5.408;2023-05-08T00:47:31;102219.84;;;12.66;90.48
80128;BME280;69440;52.118;5.408;2023-05-08T00:49:59;102216.50;;;12.61;90.40
80128;BME280;69440;52.118;5.408;2023-05-08T00:52:28;102209.59;;;12.54;90.27
80128;BME280;69440;52.118;5.408;2023-05-08T00:54:58;102212.25;;;12.55;90.26
80128;BME280;69440;52.118;5.408;2023-05-08T00:57:25;102214.59;;;12.42;90.67
80128;BME280;69440;52.118;5.408;2023-05-08T00:59:52;102210.38;;;12.37;90.93
80128;BME280;69440;52.118;5.408;2023-05-08T01:02:20;102219.59;;;12.31;90.46
80128;BME280;69440;52.118;5.408;2023-05-08T01:04:47;102220.41;;;12.33;91.65
80128;BME280;69440;52.118;5.408;2023-05-08T01:07:16;102221.22;;;12.35;91.21
80128;BME280;69440;52.118;5.408;2023-05-08T01:09:43;102218.38;;;12.38;91.25
80128;BME280;69440;52.118;5.408;2023-05-08T01:14:46;102222.31;;;12.31;90.66
80128;BME280;69440;52.118;5.408;2023-05-08T01:17:23;102215.66;;;12.18;91.66
80128;BME280;69440;52.118;5.408;2023-05-08T01:20:05;102218.22;;;12.21;91.82
80128;BME280;69440;52.118;5.408;2023-05-08T01:36:40;102225.72;;;12.15;91.97
80128;BME280;69440;52.118;5.408;2023-05-08T01:41:57;102228.88;;;12.04;91.94
80128;BME280;69440;52.118;5.408;2023-05-08T01:44:30;102228.00;;;12.03;91.71
80128;BME280;69440;52.118;5.408;2023-05-08T01:47:04;102226.44;;;11.98;91.08
80128;BME280;69440;52.118;5.408;2023-05-08T01:49:36;102232.84;;;11.95;91.80
80128;BME280;69440;52.118;5.408;2023-05-08T01:52:13;102227.41;;;11.97;91.91
80128;BME280;69440;52.118;5.408;2023-05-08T01:54:50;102228.28;;;11.97;90.67
80128;BME280;69440;52.118;5.408;2023-05-08T01:57:23;102226.59;;;11.95;90.90
80128;BME280;69440;52.118;5.408;2023-05-08T01:59:53;102223.00;;;11.94;91.28
80128;BME280;69440;52.118;5.408;2023-05-08T02:02:21;102236.66;;;11.90;91.02
80128;BME280;69440;52.118;5.408;2023-05-08T02:04:49;102232.22;;;11.89;90.50
80128;BME280;69440;52.118;5.408;2023-05-08T02:07:19;102234.16;;;11.85;91.16
80128;BME280;69440;52.118;5.408;2023-05-08T02:09:47;102241.38;;;11.85;91.50
80128;BME280;69440;52.118;5.408;2023-05-08T02:12:15;102235.97;;;11.85;91.68
80128;BME280;69440;52.118;5.408;2023-05-08T02:14:44;102232.47;;;11.82;91.91
80128;BME280;69440;52.118;5.408;2023-05-08T02:17:11;102237.84;;;11.82;91.59
80128;BME280;69440;52.118;5.408;2023-05-08T02:19:42;102236.78;;;11.87;92.53
80128;BME280;69440;52.118;5.408;2023-05-08T02:22:09;102238.88;;;11.80;91.79
80128;BME280;69440;52.118;5.408;2023-05-08T02:24:37;102241.63;;;11.78;91.75
80128;BME280;69440;52.118;5.408;2023-05-08T02:27:05;102238.78;;;11.81;91.98
80128;BME280;69440;52.118;5.408;2023-05-08T02:29:33;102244.31;;;11.78;91.74
80128;BME280;69440;52.118;5.408;2023-05-08T02:32:01;102238.94;;;11.78;91.95
80128;BME280;69440;52.118;5.408;2023-05-08T02:34:29;102242.50;;;11.79;92.16
80128;BME280;69440;52.118;5.408;2023-05-08T02:36:56;102246.88;;;11.81;92.40
80128;BME280;69440;52.118;5.408;2023-05-08T02:39:25;102250.59;;;11.79;92.44
80128;BME280;69440;52.118;5.408;2023-05-08T02:41:55;102249.69;;;11.78;92.50
80128;BME280;69440;52.118;5.408;2023-05-08T02:44:22;102249.53;;;11.60;91.60
80128;BME280;69440;52.118;5.408;2023-05-08T02:46:58;102255.97;;;11.56;92.44
80128;BME280;69440;52.118;5.408;2023-05-08T02:52:09;102250.47;;;11.37;91.36
80128;BME280;69440;52.118;5.408;2023-05-08T02:54:42;102253.50;;;11.28;91.71
80128;BME280;69440;52.118;5.408;2023-05-08T02:57:29;102248.88;;;11.31;91.87
80128;BME280;69440;52.118;5.408;2023-05-08T03:02:37;102242.28;;;11.40;92.40
80128;BME280;69440;52.118;5.408;2023-05-08T03:05:17;102242.84;;;11.48;92.10
80128;BME280;69440;52.118;5.408;2023-05-08T03:07:46;102243.59;;;11.51;92.40
80128;BME280;69440;52.118;5.408;2023-05-08T03:10:15;102242.78;;;11.49;92.01
80128;BME280;69440;52.118;5.408;2023-05-08T03:12:47;102233.94;;;11.46;91.84
80128;BME280;69440;52.118;5.408;2023-05-08T03:15:32;102233.13;;;11.44;91.99
80128;BME280;69440;52.118;5.408;2023-05-08T03:18:06;102233.19;;;11.42;92.47
80128;BME280;69440;52.118;5.408;2023-05-08T03:20:36;102236.00;;;11.39;91.64
80128;BME280;69440;52.118;5.408;2023-05-08T03:23:05;102240.81;;;11.31;91.44
80128;BME280;69440;52.118;5.408;2023-05-08T03:25:34;102235.53;;;11.28;91.07
80128;BME280;69440;52.118;5.408;2023-05-08T03:28:04;102232.91;;;11.27;91.93
80128;BME280;69440;52.118;5.408;2023-05-08T03:30:37;102233.91;;;11.24;91.88
80128;BME280;69440;52.118;5.408;2023-05-08T03:33:06;102229.34;;;11.26;92.62
80128;BME280;69440;52.118;5.408;2023-05-08T03:35:37;102234.66;;;11.28;91.91
80128;BME280;69440;52.118;5.408;2023-05-08T03:38:05;102235.53;;;11.28;92.26
80128;BME280;69440;52.118;5.408;2023-05-08T03:40:33;102232.91;;;11.27;92.23
80128;BME280;69440;52.118;5.408;2023-05-08T03:43:07;102224.84;;;11.27;91.93
80128;BME280;69440;52.118;5.408;2023-05-08T03:45:35;102223.28;;;11.21;91.62
80128;BME280;69440;52.118;5.408;2023-05-08T03:48:05;102228.72;;;11.19;91.20
80128;BME280;69440;52.118;5.408;2023-05-08T03:50:36;102221.41;;;11.23;92.52
80128;BME280;69440;52.118;5.408;2023-05-08T03:53:03;102225.03;;;11.22;91.76
80128;BME280;69440;52.118;5.408;2023-05-08T03:55:30;102218.88;;;11.18;91.55
80128;BME280;69440;52.118;5.408;2023-05-08T03:58:07;102220.00;;;11.13;92.11
80128;BME280;69440;52.118;5.408;2023-05-08T04:03:36;102223.00;;;11.05;92.92
80128;BME280;69440;52.118;5.408;2023-05-08T04:06:16;102227.59;;;11.02;92.19
80128;BME280;69440;52.118;5.408;2023-05-08T04:08:54;102228.38;;;11.05;92.61
80128;BME280;69440;52.118;5.408;2023-05-08T04:11:37;102230.97;;;11.08;92.56
80128;BME280;69440;52.118;5.408;2023-05-08T04:14:09;102230.09;;;11.08;92.34
80128;BME280;69440;52.118;5.408;2023-05-08T04:16:38;102229.97;;;11.11;92.37
80128;BME280;69440;52.118;5.408;2023-05-08T04:19:14;102235.53;;;11.06;92.04
80128;BME280;69440;52.118;5.408;2023-05-08T04:21:43;102236.78;;;10.96;91.42
80128;BME280;69440;52.118;5.408;2023-05-08T04:24:12;102233.16;;;10.97;91.99
80128;BME280;69440;52.118;5.408;2023-05-08T04:26:40;102237.59;;;10.98;91.69
80128;BME280;69440;52.118;5.408;2023-05-08T04:29:07;102237.47;;;11.01;92.41
80128;BME280;69440;52.118;5.408;2023-05-08T04:31:36;102240.03;;;11.06;92.58
80128;BME280;69440;52.118;5.408;2023-05-08T04:34:02;102245.28;;;11.09;91.98
80128;BME280;69440;52.118;5.408;2023-05-08T04:36:30;102232.94;;;11.03;92.43
80128;BME280;69440;52.118;5.408;2023-05-08T04:38:56;102235.53;;;11.06;91.79
80128;BME280;69440;52.118;5.408;2023-05-08T04:41:24;102240.72;;;11.11;91.73
80128;BME280;69440;52.118;5.408;2023-05-08T04:43:52;102244.28;;;11.11;91.44
80128;BME280;69440;52.118;5.408;2023-05-08T04:46:19;102248.66;;;11.14;91.94
80128;BME280;69440;52.118;5.408;2023-05-08T04:48:46;102249.44;;;11.17;92.49
80128;BME280;69440;52.118;5.408;2023-05-08T04:51:12;102241.16;;;11.22;91.98
80128;BME280;69440;52.118;5.408;2023-05-08T04:53:39;102251.00;;;11.23;92.14
80128;BME280;69440;52.118;5.408;2023-05-08T04:56:05;102249.00;;;11.28;92.20
80128;BME280;69440;52.118;5.408;2023-05-08T04:58:32;102255.13;;;11.32;91.91
80128;BME280;69440;52.118;5.408;2023-05-08T05:01:02;102255.03;;;11.35;91.49
80128;BME280;69440;52.118;5.408;2023-05-08T05:03:29;102254.72;;;11.42;91.46
80128;BME280;69440;52.118;5.408;2023-05-08T05:05:57;102263.38;;;11.50;91.69
80128;BME280;69440;52.118;5.408;2023-05-08T05:08:24;102268.69;;;11.52;90.68
80128;BME280;69440;52.118;5.408;2023-05-08T05:10:50;102267.75;;;11.53;90.70
80128;BME280;69440;52.118;5.408;2023-05-08T05:13:17;102269.91;;;11.67;90.86
80128;BME280;69440;52.118;5.408;2023-05-08T05:15:45;102273.97;;;11.77;90.77
80128;BME280;69440;52.118;5.408;2023-05-08T05:18:11;102262.78;;;11.88;91.31
80128;BME280;69440;52.118;5.408;2023-05-08T05:20:38;102278.53;;;11.98;91.03
80128;BME280;69440;52.118;5.408;2023-05-08T05:23:04;102274.50;;;12.08;90.94
80128;BME280;69440;52.118;5.408;2023-05-08T05:25:31;102284.88;;;12.18;91.09
80128;BME280;69440;52.118;5.408;2023-05-08T05:27:57;102281.44;;;12.14;90.29
80128;BME280;69440;52.118;5.408;2023-05-08T05:30:23;102284.06;;;12.16;90.85
80128;BME280;69440;52.118;5.408;2023-05-08T05:32:50;102277.88;;;12.13;91.21
80128;BME280;69440;52.118;5.408;2023-05-08T05:35:16;102279.06;;;12.28;91.04
80128;BME280;69440;52.118;5.408;2023-05-08T05:37:43;102278.78;;;12.34;90.79
80128;BME280;69440;52.118;5.408;2023-05-08T05:40:09;102283.16;;;12.37;90.52
80128;BME280;69440;52.118;5.408;2023-05-08T05:42:38;102279.19;;;12.46;90.91
80128;BME280;69440;52.118;5.408;2023-05-08T05:45:05;102285.94;;;12.56;91.09
80128;BME280;69440;52.118;5.408;2023-05-08T05:47:31;102276.63;;;12.63;90.60
80128;BME280;69440;52.118;5.408;2023-05-08T05:49:58;102279.78;;;12.72;90.68
80128;BME280;69440;52.118;5.408;2023-05-08T05:52:24;102284.09;;;12.77;90.28
80128;BME280;69440;52.118;5.408;2023-05-08T05:54:50;102285.63;;;12.82;90.47
80128;BME280;69440;52.118;5.408;2023-05-08T05:57:17;102289.63;;;12.94;90.39
80128;BME280;69440;52.118;5.408;2023-05-08T05:59:43;102294.38;;;13.07;90.48
80128;BME280;69440;52.118;5.408;2023-05-08T06:02:10;102286.84;;;13.14;90.53
80128;BME280;69440;52.118;5.408;2023-05-08T06:04:44;102288.31;;;13.23;90.08
80128;BME280;69440;52.118;5.408;2023-05-08T06:07:10;102287.88;;;13.32;90.44
80128;BME280;69440;52.118;5.408;2023-05-08T06:09:36;102291.16;;;13.39;89.75
80128;BME280;69440;52.118;5.408;2023-05-08T06:12:03;102288.91;;;13.48;89.88
80128;BME280;69440;52.118;5.408;2023-05-08T06:14:29;102292.03;;;13.58;90.17
80128;BME280;69440;52.118;5.408;2023-05-08T06:16:57;102295.09;;;13.69;89.97
80128;BME280;69440;52.118;5.408;2023-05-08T06:19:23;102289.47;;;13.74;89.41
80128;BME280;69440;52.118;5.408;2023-05-08T06:21:50;102290.06;;;13.80;89.10
80128;BME280;69440;52.118;5.408;2023-05-08T06:24:17;102291.66;;;13.84;89.45
80128;BME280;69440;52.118;5.408;2023-05-08T06:26:43;102290.09;;;13.97;90.75
80128;BME280;69440;52.118;5.408;2023-05-08T06:29:10;102283.00;;;13.95;89.50
80128;BME280;69440;52.118;5.408;2023-05-08T06:31:36;102297.31;;;13.97;89.50
80128;BME280;69440;52.118;5.408;2023-05-08T06:34:03;102295.19;;;14.04;89.40
80128;BME280;69440;52.118;5.408;2023-05-08T06:36:29;102295.03;;;14.07;89.10
80128;BME280;69440;52.118;5.408;2023-05-08T06:38:56;102290.13;;;14.15;89.08
80128;BME280;69440;52.118;5.408;2023-05-08T06:41:23;102284.56;;;14.18;88.64
80128;BME280;69440;52.118;5.408;2023-05-08T06:43:49;102298.63;;;14.24;88.71
80128;BME280;69440;52.118;5.408;2023-05-08T06:46:16;102288.13;;;14.36;88.71
80128;BME280;69440;52.118;5.408;2023-05-08T06:48:43;102290.19;;;14.49;88.96
80128;BME280;69440;52.118;5.408;2023-05-08T06:51:09;102292.63;;;14.54;86.94
80128;BME280;69440;52.118;5.408;2023-05-08T06:53:35;102285.69;;;14.66;87.54
80128;BME280;69440;52.118;5.408;2023-05-08T06:56:02;102295.63;;;14.82;87.27
80128;BME280;69440;52.118;5.408;2023-05-08T06:58:28;102295.94;;;14.94;86.54
80128;BME280;69440;52.118;5.408;2023-05-08T07:01:00;102296.25;;;15.05;86.26
80128;BME280;69440;52.118;5.408;2023-05-08T07:03:29;102297.94;;;15.23;86.86
80128;BME280;69440;52.118;5.408;2023-05-08T07:05:55;102300.34;;;15.45;85.13
80128;BME280;69440;52.118;5.408;2023-05-08T07:08:22;102303.97;;;15.61;84.56
80128;BME280;69440;52.118;5.408;2023-05-08T07:10:48;102300.84;;;15.69;85.48
80128;BME280;69440;52.118;5.408;2023-05-08T07:13:15;102291.81;;;15.68;85.48
80128;BME280;69440;52.118;5.408;2023-05-08T07:15:45;102291.56;;;15.73;86.46
80128;BME280;69440;52.118;5.408;2023-05-08T07:18:11;102296.88;;;15.74;86.81
80128;BME280;69440;52.118;5.408;2023-05-08T07:20:38;102300.84;;;15.69;86.04
80128;BME280;69440;52.118;5.408;2023-05-08T07:23:04;102292.00;;;15.65;86.39
80128;BME280;69440;52.118;5.408;2023-05-08T07:25:32;102294.06;;;15.60;86.73
80128;BME280;69440;52.118;5.408;2023-05-08T07:27:58;102299.63;;;15.57;87.46
80128;BME280;69440;52.118;5.408;2023-05-08T07:30:26;102297.19;;;15.52;87.38
80128;BME280;69440;52.118;5.408;2023-05-08T07:32:53;102287.13;;;15.54;87.08
80128;BME280;69440;52.118;5.408;2023-05-08T07:35:19;102289.66;;;15.58;87.97
80128;BME280;69440;52.118;5.408;2023-05-08T07:37:46;102285.94;;;15.60;87.63
80128;BME280;69440;52.118;5.408;2023-05-08T07:40:12;102285.88;;;15.62;88.00
80128;BME280;69440;52.118;5.408;2023-05-08T07:42:40;102284.84;;;15.64;87.70
80128;BME280;69440;52.118;5.408;2023-05-08T07:45:10;102290.00;;;15.69;87.38
80128;BME280;69440;52.118;5.408;2023-05-08T07:47:47;102285.34;;;15.71;87.31
80128;BME280;69440;52.118;5.408;2023-05-08T07:50:13;102288.06;;;15.71;87.65
80128;BME280;69440;52.118;5.408;2023-05-08T07:52:40;102285.00;;;15.77;88.32
80128;BME280;69440;52.118;5.408;2023-05-08T07:55:07;102284.63;;;15.83;87.12
80128;BME280;69440;52.118;5.408;2023-05-08T07:57:37;102284.03;;;15.94;87.66
80128;BME280;69440;52.118;5.408;2023-05-08T08:00:05;102291.28;;;15.93;86.81
80128;BME280;69440;52.118;5.408;2023-05-08T08:02:32;102299.56;;;16.06;86.84
80128;BME280;69440;52.118;5.408;2023-05-08T08:04:58;102290.28;;;16.10;87.28
80128;BME280;69440;52.118;5.408;2023-05-08T08:07:25;102292.03;;;16.11;87.65
80128;BME280;69440;52.118;5.408;2023-05-08T08:09:52;102287.31;;;16.14;86.96
80128;BME280;69440;52.118;5.408;2023-05-08T08:12:18;102286.44;;;16.14;86.92
80128;BME280;69440;52.118;5.408;2023-05-08T08:14:46;102294.66;;;16.12;87.31
80128;BME280;69440;52.118;5.408;2023-05-08T08:17:12;102294.38;;;16.17;87.13
80128;BME280;69440;52.118;5.408;2023-05-08T08:19:38;102300.09;;;16.12;86.31
80128;BME280;69440;52.118;5.408;2023-05-08T08:22:05;102295.44;;;16.14;86.42
80128;BME280;69440;52.118;5.408;2023-05-08T08:24:31;102300.69;;;16.18;86.73
80128;BME280;69440;52.118;5.408;2023-05-08T08:26:58;102291.25;;;16.25;86.55
80128;BME280;69440;52.118;5.408;2023-05-08T08:29:24;102298.22;;;16.29;86.80
80128;BME280;69440;52.118;5.408;2023-05-08T08:31:51;102294.63;;;16.28;85.49
80128;BME280;69440;52.118;5.408;2023-05-08T08:34:17;102286.03;;;16.36;86.15
80128;BME280;69440;52.118;5.408;2023-05-08T08:36:44;102290.22;;;16.41;86.11
80128;BME280;69440;52.118;5.408;2023-05-08T08:39:10;102288.78;;;16.50;85.41
80128;BME280;69440;52.118;5.408;2023-05-08T08:41:40;102279.38;;;16.71;85.66
80128;BME280;69440;52.118;5.408;2023-05-08T08:44:06;102272.81;;;16.90;84.58
80128;BME280;69440;52.118;5.408;2023-05-08T08:46:34;102277.75;;;17.12;83.71
80128;BME280;69440;52.118;5.408;2023-05-08T08:49:03;102270.25;;;17.44;83.49
80128;BME280;69440;52.118;5.408;2023-05-08T08:51:42;102268.75;;;17.66;81.96
80128;BME280;69440;52.118;5.408;2023-05-08T08:54:12;102277.13;;;17.78;81.82
80128;BME280;69440;52.118;5.408;2023-05-08T08:56:40;102274.59;;;17.60;80.99
80128;BME280;69440;52.118;5.408;2023-05-08T08:59:15;102270.75;;;17.50;80.82
80128;BME280;69440;52.118;5.408;2023-05-08T09:01:46;102273.06;;;17.42;80.60
80128;BME280;69440;52.118;5.408;2023-05-08T09:04:15;102276.38;;;17.47;81.32
80128;BME280;69440;52.118;5.408;2023-05-08T09:06:41;102277.06;;;17.51;82.00
80128;BME280;69440;52.118;5.408;2023-05-08T09:09:11;102280.44;;;17.54;80.60
80128;BME280;69440;52.118;5.408;2023-05-08T09:11:39;102279.47;;;17.69;80.77
80128;BME280;69440;52.118;5.408;2023-05-08T09:14:05;102280.72;;;17.78;80.63
80128;BME280;69440;52.118;5.408;2023-05-08T09:16:32;102279.88;;;17.90;78.61
80128;BME280;69440;52.118;5.408;2023-05-08T09:18:58;102263.50;;;18.05;79.76
80128;BME280;69440;52.118;5.408;2023-05-08T09:21:26;102270.13;;;18.00;78.03
80128;BME280;69440;52.118;5.408;2023-05-08T09:23:59;102274.91;;;17.97;79.78
80128;BME280;69440;52.118;5.408;2023-05-08T09:29:19;102269.69;;;18.34;79.62
80128;BME280;69440;52.118;5.408;2023-05-08T09:31:51;102273.84;;;18.39;79.34
80128;BME280;69440;52.118;5.408;2023-05-08T09:34:28;102272.66;;;18.43;78.06
80128;BME280;69440;52.118;5.408;2023-05-08T09:37:11;102260.91;;;18.55;77.50
80128;BME280;69440;52.118;5.408;2023-05-08T09:39:39;102269.22;;;18.67;76.39
80128;BME280;69440;52.118;5.408;2023-05-08T09:42:07;102260.44;;;18.76;74.42
80128;BME280;69440;52.118;5.408;2023-05-08T09:45:00;102267.72;;;18.75;75.87
80128;BME280;69440;52.118;5.408;2023-05-08T09:47:26;102259.22;;;18.80;75.43
80128;BME280;69440;52.118;5.408;2023-05-08T09:50:00;102271.22;;;18.90;73.42
80128;BME280;69440;52.118;5.408;2023-05-08T09:52:28;102274.03;;;18.88;74.69
80128;BME280;69440;52.118;5.408;2023-05-08T09:54:59;102276.44;;;18.93;75.79
80128;BME280;69440;52.118;5.408;2023-05-08T09:57:28;102269.13;;;18.93;75.70
80128;BME280;69440;52.118;5.408;2023-05-08T10:00:09;102269.03;;;19.08;75.24
80128;BME280;69440;52.118;5.408;2023-05-08T10:02:52;102267.28;;;18.94;75.28
80128;BME280;69440;52.118;5.408;2023-05-08T10:05:23;102273.19;;;19.01;76.18
80128;BME280;69440;52.118;5.408;2023-05-08T10:07:50;102273.38;;;19.10;76.09
80128;BME280;69440;52.118;5.408;2023-05-08T10:10:29;102277.63;;;18.89;77.26
80128;BME280;69440;52.118;5.408;2023-05-08T10:12:58;102274.72;;;19.05;77.00
80128;BME280;69440;52.118;5.408;2023-05-08T10:15:28;102274.22;;;19.23;75.02
80128;BME280;69440;52.118;5.408;2023-05-08T10:20:24;102274.28;;;18.98;76.09
80128;BME280;69440;52.118;5.408;2023-05-08T10:22:55;102280.13;;;18.92;75.47
80128;BME280;69440;52.118;5.408;2023-05-08T10:25:23;102273.16;;;18.88;75.61
80128;BME280;69440;52.118;5.408;2023-05-08T10:27:58;102276.34;;;18.82;74.97
80128;BME280;69440;52.118;5.408;2023-05-08T10:30:33;102274.91;;;18.76;75.67
80128;BME280;69440;52.118;5.408;2023-05-08T10:33:07;102272.63;;;18.70;74.74
80128;BME280;69440;52.118;5.408;2023-05-08T10:35:36;102268.59;;;18.76;75.16
80128;BME280;69440;52.118;5.408;2023-05-08T10:38:03;102273.50;;;18.83;74.43
80128;BME280;69440;52.118;5.408;2023-05-08T10:40:30;102276.53;;;18.91;74.53
80128;BME280;69440;52.118;5.408;2023-05-08T10:42:57;102273.94;;;19.03;74.61
80128;BME280;69440;52.118;5.408;2023-05-08T10:45:24;102267.03;;;19.22;74.76
80128;BME280;69440;52.118;5.408;2023-05-08T10:50:41;102275.75;;;19.40;71.73
80128;BME280;69440;52.118;5.408;2023-05-08T10:55:37;102271.84;;;19.32;72.17
80128;BME280;69440;52.118;5.408;2023-05-08T11:03:43;102268.38;;;19.30;71.88
80128;BME280;69440;52.118;5.408;2023-05-08T11:06:10;102271.16;;;19.28;71.75
80128;BME280;69440;52.118;5.408;2023-05-08T11:09:03;102269.00;;;19.20;71.74
80128;BME280;69440;52.118;5.408;2023-05-08T11:11:31;102267.63;;;19.02;71.48
80128;BME280;69440;52.118;5.408;2023-05-08T11:14:09;102263.56;;;18.95;72.72
80128;BME280;69440;52.118;5.408;2023-05-08T11:19:20;102253.44;;;18.84;73.68
80128;BME280;69440;52.118;5.408;2023-05-08T11:24:40;102252.56;;;18.84;74.03
80128;BME280;69440;52.118;5.408;2023-05-08T11:27:11;102248.31;;;18.92;73.10
80128;BME280;69440;52.118;5.408;2023-05-08T11:29:38;102251.06;;;19.05;72.64
80128;BME280;69440;52.118;5.408;2023-05-08T11:32:05;102242.97;;;19.16;71.88
80128;BME280;69440;52.118;5.408;2023-05-08T11:34:44;102238.31;;;19.42;72.99
80128;BME280;69440;52.118;5.408;2023-05-08T11:37:16;102240.25;;;19.66;71.58
80128;BME280;69440;52.118;5.408;2023-05-08T11:39:43;102238.56;;;19.76;71.15
80128;BME280;69440;52.118;5.408;2023-05-08T11:45:08;102238.56;;;20.24;69.63
80128;BME280;69440;52.118;5.408;2023-05-08T11:47:42;102227.88;;;20.21;68.81
80128;BME280;69440;52.118;5.408;2023-05-08T11:50:11;102229.81;;;20.19;69.46
80128;BME280;69440;52.118;5.408;2023-05-08T11:52:40;102227.66;;;20.00;69.80
80128;BME280;69440;52.118;5.408;2023-05-08T11:55:10;102232.53;;;19.83;69.71
80128;BME280;69440;52.118;5.408;2023-05-08T11:57:38;102235.44;;;19.69;69.70
80128;BME280;69440;52.118;5.408;2023-05-08T12:00:08;102235.66;;;19.66;70.43
80128;BME280;69440;52.118;5.408;2023-05-08T12:02:40;102237.41;;;19.67;69.78
80128;BME280;69440;52.118;5.408;2023-05-08T12:05:09;102232.28;;;19.87;69.53
80128;BME280;69440;52.118;5.408;2023-05-08T12:07:43;102230.22;;;19.90;68.48
80128;BME280;69440;52.118;5.408;2023-05-08T12:10:10;102227.81;;;19.85;68.58
80128;BME280;69440;52.118;5.408;2023-05-08T12:12:39;102216.91;;;19.85;68.92
80128;BME280;69440;52.118;5.408;2023-05-08T12:15:10;102222.19;;;20.00;67.69
80128;BME280;69440;52.118;5.408;2023-05-08T12:17:37;102223.94;;;20.36;66.25
80128;BME280;69440;52.118;5.408;2023-05-08T12:20:11;102218.22;;;20.96;66.12
80128;BME280;69440;52.118;5.408;2023-05-08T12:22:49;102207.16;;;21.54;63.01
80128;BME280;69440;52.118;5.408;2023-05-08T12:25:16;102199.50;;;21.68;62.90
80128;BME280;69440;52.118;5.408;2023-05-08T12:27:43;102213.22;;;21.57;64.71
80128;BME280;69440;52.118;5.408;2023-05-08T12:30:11;102209.66;;;21.34;63.66
80128;BME280;69440;52.118;5.408;2023-05-08T12:32:40;102220.72;;;21.33;63.06
80128;BME280;69440;52.118;5.408;2023-05-08T12:35:08;102204.19;;;21.46;63.83
80128;BME280;69440;52.118;5.408;2023-05-08T12:37:35;102203.22;;;21.79;64.71
80128;BME280;69440;52.118;5.408;2023-05-08T12:40:03;102203.66;;;22.48;64.76
80128;BME280;69440;52.118;5.408;2023-05-08T12:42:46;102197.84;;;22.83;60.12
80128;BME280;69440;52.118;5.408;2023-05-08T12:45:20;102184.66;;;22.77;58.61
80128;BME280;69440;52.118;5.408;2023-05-08T12:47:52;102192.38;;;22.92;59.94
80128;BME280;69440;52.118;5.408;2023-05-08T12:50:21;102191.91;;;23.18;59.72
80128;BME280;69440;52.118;5.408;2023-05-08T12:52:47;102180.81;;;23.19;59.54
80128;BME280;69440;52.118;5.408;2023-05-08T12:55:22;102180.06;;;23.17;60.16
80128;BME280;69440;52.118;5.408;2023-05-08T12:57:57;102171.53;;;22.80;57.83
80128;BME280;69440;52.118;5.408;2023-05-08T13:00:23;102174.25;;;22.50;59.62
80128;BME280;69440;52.118;5.408;2023-05-08T13:02:51;102175.72;;;22.33;59.83
80128;BME280;69440;52.118;5.408;2023-05-08T13:05:22;102166.78;;;22.10;60.73
80128;BME280;69440;52.118;5.408;2023-05-08T13:07:49;102165.50;;;22.03;61.09
80128;BME280;69440;52.118;5.408;2023-05-08T13:10:17;102166.50;;;21.81;60.48
80128;BME280;69440;52.118;5.408;2023-05-08T13:12:50;102163.59;;;21.62;61.77
80128;BME280;69440;52.118;5.408;2023-05-08T13:15:17;102157.53;;;21.47;62.60
80128;BME280;69440;52.118;5.408;2023-05-08T13:17:44;102162.50;;;21.42;62.86
80128;BME280;69440;52.118;5.408;2023-05-08T13:20:10;102169.25;;;21.38;62.33
80128;BME280;69440;52.118;5.408;2023-05-08T13:22:37;102164.03;;;21.46;64.11
80128;BME280;69440;52.118;5.408;2023-05-08T13:25:04;102161.06;;;21.70;63.34
80128;BME280;69440;52.118;5.408;2023-05-08T13:27:30;102171.13;;;21.69;63.02
80128;BME280;69440;52.118;5.408;2023-05-08T13:29:57;102153.69;;;21.50;59.90
80128;BME280;69440;52.118;5.408;2023-05-08T13:32:23;102159.28;;;21.37;62.67
80128;BME280;69440;52.118;5.408;2023-05-08T13:34:50;102156.81;;;21.34;62.90
80128;BME280;69440;52.118;5.408;2023-05-08T13:37:21;102165.28;;;21.31;64.24
80128;BME280;69440;52.118;5.408;2023-05-08T13:39:48;102158.56;;;21.35;63.43
80128;BME280;69440;52.118;5.408;2023-05-08T13:42:14;102148.09;;;21.51;62.32
80128;BME280;69440;52.118;5.408;2023-05-08T13:44:40;102148.28;;;21.91;62.14
80128;BME280;69440;52.118;5.408;2023-05-08T13:47:08;102154.19;;;22.28;60.32
80128;BME280;69440;52.118;5.408;2023-05-08T13:49:35;102140.31;;;22.41;59.32
80128;BME280;69440;52.118;5.408;2023-05-08T13:52:01;102153.56;;;22.36;58.75